createdAt,value
2018-03-08T00:00:47.199Z,2.84
2018-03-08T00:01:47.184Z,2.8
2018-03-08T00:02:47.206Z,2.81
2018-03-08T00:03:47.206Z,2.8
2018-03-08T00:04:47.210Z,2.75
2018-03-08T00:05:47.200Z,2.74
2018-03-08T00:06:47.240Z,2.82
2018-03-08T00:07:47.190Z,2.8
2018-03-08T00:08:47.225Z,2.75
2018-03-08T00:09:47.216Z,2.79
2018-03-08T00:10:47.216Z,2.75
2018-03-08T00:11:47.211Z,2.78
2018-03-08T00:12:47.212Z,2.75
2018-03-08T00:13:47.222Z,2.79
2018-03-08T00:14:47.214Z,2.76
2018-03-08T00:15:47.211Z,2.77
2018-03-08T00:16:47.235Z,2.77
2018-03-08T00:17:47.432Z,2.81
2018-03-08T00:18:47.221Z,2.73
2018-03-08T00:19:47.241Z,2.8
2018-03-08T00:20:47.249Z,2.77
2018-03-08T00:21:47.249Z,2.76
2018-03-08T00:22:47.269Z,2.78
2018-03-08T00:23:47.256Z,2.82
2018-03-08T00:24:47.283Z,2.77
2018-03-08T00:25:47.257Z,2.78
2018-03-08T00:26:47.258Z,2.78
2018-03-08T00:27:47.267Z,2.8
2018-03-08T00:28:47.290Z,2.79
2018-03-08T00:29:47.284Z,2.77
2018-03-08T00:30:47.281Z,2.78
2018-03-08T00:31:47.280Z,2.81
2018-03-08T00:32:47.494Z,2.8
2018-03-08T00:33:47.562Z,2.78
2018-03-08T00:34:47.302Z,2.77
2018-03-08T00:35:47.301Z,2.77
2018-03-08T00:36:47.306Z,2.8
2018-03-08T00:37:47.303Z,2.81
2018-03-08T00:38:47.324Z,2.78
2018-03-08T00:39:47.312Z,2.83
2018-03-08T00:40:47.323Z,2.83
2018-03-08T00:41:47.352Z,2.77
2018-03-08T00:42:47.311Z,2.85
2018-03-08T00:43:47.357Z,2.84
2018-03-08T00:44:47.350Z,2.83
2018-03-08T00:45:47.608Z,2.84
2018-03-08T00:46:47.310Z,2.83
2018-03-08T00:47:47.316Z,2.81
2018-03-08T00:48:47.360Z,2.86
2018-03-08T00:49:47.319Z,2.83
2018-03-08T00:50:47.354Z,2.77
2018-03-08T00:51:47.330Z,2.83
2018-03-08T00:52:47.386Z,2.83
2018-03-08T00:53:47.343Z,2.8
2018-03-08T00:54:47.353Z,2.85
2018-03-08T00:55:47.343Z,2.88
2018-03-08T00:56:47.394Z,2.85
2018-03-08T00:57:47.327Z,2.83
2018-03-08T00:58:47.345Z,2.85
2018-03-08T00:59:47.344Z,2.85
2018-03-08T01:00:47.343Z,2.87
2018-03-08T01:01:47.363Z,2.87
2018-03-08T01:02:47.662Z,2.88
2018-03-08T01:03:47.373Z,2.84
2018-03-08T01:04:47.359Z,2.89
2018-03-08T01:05:47.357Z,2.86
2018-03-08T01:06:47.841Z,2.85
2018-03-08T01:07:47.383Z,2.85
2018-03-08T01:08:47.380Z,2.89
2018-03-08T01:09:47.384Z,2.81
2018-03-08T01:10:47.389Z,2.86
2018-03-08T01:11:47.378Z,2.87
2018-03-08T01:12:48.631Z,2.9
2018-03-08T01:13:47.377Z,2.86
2018-03-08T01:14:47.433Z,2.87
2018-03-08T01:15:47.387Z,2.85
2018-03-08T01:16:47.410Z,2.87
2018-03-08T01:17:47.434Z,2.89
2018-03-08T01:18:47.401Z,2.88
2018-03-08T01:19:47.403Z,2.86
2018-03-08T01:20:47.406Z,2.87
2018-03-08T01:21:47.418Z,2.87
2018-03-08T01:22:47.453Z,2.89
2018-03-08T01:23:47.418Z,2.88
2018-03-08T01:24:47.448Z,2.89
2018-03-08T01:25:47.419Z,2.89
2018-03-08T01:26:47.422Z,2.9
2018-03-08T01:27:47.430Z,2.93
2018-03-08T01:28:47.441Z,2.88
2018-03-08T01:29:47.452Z,2.92
2018-03-08T01:30:47.455Z,2.9
2018-03-08T01:32:47.476Z,2.93
2018-03-08T01:33:47.468Z,2.86
2018-03-08T01:34:47.482Z,2.88
2018-03-08T01:35:48.492Z,2.9
2018-03-08T01:36:47.474Z,2.91
2018-03-08T01:37:47.480Z,2.88
2018-03-08T01:38:47.780Z,2.92
2018-03-08T01:39:47.705Z,2.93
2018-03-08T01:40:47.502Z,2.94
2018-03-08T01:41:47.505Z,2.96
2018-03-08T01:42:47.505Z,2.9
2018-03-08T01:43:47.739Z,2.92
2018-03-08T01:44:47.507Z,2.93
2018-03-08T01:45:47.524Z,2.93
2018-03-08T01:46:47.527Z,2.92
2018-03-08T01:47:47.554Z,2.91
2018-03-08T01:48:47.553Z,2.91
2018-03-08T01:49:47.564Z,2.95
2018-03-08T01:50:47.540Z,2.92
2018-03-08T01:51:47.551Z,2.94
2018-03-08T01:52:47.558Z,2.94
2018-03-08T01:53:47.566Z,2.95
2018-03-08T01:54:47.570Z,2.92
2018-03-08T01:55:47.575Z,2.92
2018-03-08T01:56:47.583Z,2.9
2018-03-08T01:57:47.698Z,2.92
2018-03-08T01:58:47.588Z,2.96
2018-03-08T01:59:47.592Z,2.93
2018-03-08T02:00:47.598Z,2.92
2018-03-08T02:01:47.627Z,2.92
2018-03-08T02:02:47.590Z,2.97
2018-03-08T02:03:47.739Z,2.95
2018-03-08T02:04:47.623Z,2.92
2018-03-08T02:05:48.277Z,2.96
2018-03-08T02:06:47.597Z,2.94
2018-03-08T02:07:47.624Z,2.91
2018-03-08T02:08:47.619Z,2.95
2018-03-08T02:09:47.708Z,2.9
2018-03-08T02:10:47.616Z,2.92
2018-03-08T02:11:47.626Z,2.94
2018-03-08T02:12:47.607Z,2.92
2018-03-08T02:13:47.616Z,2.91
2018-03-08T02:14:47.931Z,2.94
2018-03-08T02:15:47.645Z,2.89
2018-03-08T02:16:47.671Z,2.93
2018-03-08T02:17:47.640Z,2.91
2018-03-08T02:18:47.651Z,2.93
2018-03-08T02:19:47.658Z,2.9
2018-03-08T02:20:47.644Z,2.88
2018-03-08T02:21:47.653Z,2.93
2018-03-08T02:22:47.694Z,2.93
2018-03-08T02:23:47.651Z,2.95
2018-03-08T02:24:47.889Z,2.92
2018-03-08T02:25:47.652Z,2.93
2018-03-08T02:26:47.716Z,2.92
2018-03-08T02:27:47.661Z,2.92
2018-03-08T02:28:47.676Z,2.89
2018-03-08T02:29:47.708Z,2.93
2018-03-08T02:30:47.695Z,2.91
2018-03-08T02:31:47.685Z,2.93
2018-03-08T02:32:47.681Z,2.85
2018-03-08T02:33:47.698Z,2.85
2018-03-08T02:34:47.683Z,2.88
2018-03-08T02:35:47.702Z,2.88
2018-03-08T02:36:47.700Z,2.85
2018-03-08T02:37:47.699Z,2.84
2018-03-08T02:38:47.708Z,2.84
2018-03-08T02:39:47.699Z,2.81
2018-03-08T02:40:47.766Z,2.82
2018-03-08T02:41:47.732Z,2.84
2018-03-08T02:42:47.726Z,2.82
2018-03-08T02:43:47.726Z,2.76
2018-03-08T02:44:47.713Z,2.78
2018-03-08T02:45:47.726Z,2.77
2018-03-08T02:46:47.779Z,2.76
2018-03-08T02:47:47.788Z,2.73
2018-03-08T02:48:47.747Z,2.75
2018-03-08T02:49:47.731Z,2.71
2018-03-08T02:50:47.852Z,2.74
2018-03-08T02:51:47.766Z,2.72
2018-03-08T02:52:47.766Z,2.69
2018-03-08T02:53:47.887Z,2.7
2018-03-08T02:54:47.867Z,2.69
2018-03-08T02:55:47.766Z,2.66
2018-03-08T02:56:47.765Z,2.64
2018-03-08T02:57:47.978Z,2.59
2018-03-08T02:58:47.863Z,2.6
2018-03-08T02:59:47.909Z,2.57
2018-03-08T03:00:47.775Z,2.58
2018-03-08T03:01:47.790Z,2.56
2018-03-08T03:02:47.797Z,2.52
2018-03-08T03:03:47.787Z,2.51
2018-03-08T03:04:47.819Z,2.51
2018-03-08T03:05:47.803Z,2.53
2018-03-08T03:06:47.804Z,2.51
2018-03-08T03:07:47.820Z,2.52
2018-03-08T03:08:47.813Z,2.47
2018-03-08T03:09:48.009Z,2.47
2018-03-08T03:10:47.826Z,2.5
2018-03-08T03:11:47.808Z,2.51
2018-03-08T03:12:47.828Z,2.44
2018-03-08T03:13:47.818Z,2.48
2018-03-08T03:14:47.825Z,2.42
2018-03-08T03:15:48.083Z,2.36
2018-03-08T03:16:47.828Z,2.44
2018-03-08T03:17:47.827Z,2.44
2018-03-08T03:18:47.838Z,2.38
2018-03-08T03:19:47.868Z,2.41
2018-03-08T03:20:47.880Z,2.36
2018-03-08T03:21:47.842Z,2.42
2018-03-08T03:22:47.845Z,2.39
2018-03-08T03:23:47.849Z,2.42
2018-03-08T03:24:47.856Z,2.41
2018-03-08T03:25:47.881Z,2.39
2018-03-08T03:26:47.868Z,2.41
2018-03-08T03:27:47.846Z,2.41
2018-03-08T03:28:47.875Z,2.42
2018-03-08T03:29:47.861Z,2.39
2018-03-08T03:30:47.936Z,2.38
2018-03-08T03:31:47.870Z,2.4
2018-03-08T03:32:47.878Z,2.38
2018-03-08T03:33:47.886Z,2.34
2018-03-08T03:34:47.871Z,2.33
2018-03-08T03:35:47.884Z,2.34
2018-03-08T03:36:47.897Z,2.36
2018-03-08T03:37:47.907Z,2.33
2018-03-08T03:38:47.894Z,2.32
2018-03-08T03:39:47.951Z,2.32
2018-03-08T03:40:47.886Z,2.31
2018-03-08T03:41:48.174Z,2.29
2018-03-08T03:42:47.913Z,2.33
2018-03-08T03:43:47.891Z,2.32
2018-03-08T03:44:47.896Z,2.22
2018-03-08T03:45:47.909Z,2.24
2018-03-08T03:46:47.978Z,2.28
2018-03-08T03:47:47.918Z,2.28
2018-03-08T03:48:47.926Z,2.27
2018-03-08T03:49:47.932Z,2.23
2018-03-08T03:50:47.922Z,2.2
2018-03-08T03:51:47.945Z,2.27
2018-03-08T03:52:47.948Z,2.28
2018-03-08T03:53:47.937Z,2.23
2018-03-08T03:54:47.938Z,2.28
2018-03-08T03:55:47.940Z,2.23
2018-03-08T03:56:47.932Z,2.22
2018-03-08T03:57:47.961Z,2.28
2018-03-08T03:58:47.954Z,2.31
2018-03-08T03:59:47.974Z,2.25
2018-03-08T04:00:47.971Z,2.22
2018-03-08T04:01:47.969Z,2.26
2018-03-08T04:02:47.995Z,2.33
2018-03-08T04:03:47.962Z,2.24
2018-03-08T04:04:47.964Z,2.32
2018-03-08T04:05:47.963Z,2.31
2018-03-08T04:06:47.961Z,2.32
2018-03-08T04:07:47.994Z,2.29
2018-03-08T04:08:47.971Z,2.32
2018-03-08T04:09:48.017Z,2.27
2018-03-08T04:10:48.011Z,2.34
2018-03-08T04:11:47.985Z,2.32
2018-03-08T04:12:47.987Z,2.32
2018-03-08T04:13:47.985Z,2.3
2018-03-08T04:14:48.022Z,2.29
2018-03-08T04:15:47.984Z,2.3
2018-03-08T04:16:47.999Z,2.35
2018-03-08T04:17:48.038Z,2.28
2018-03-08T04:18:48.076Z,2.31
2018-03-08T04:19:48.019Z,2.28
2018-03-08T04:20:48.064Z,2.31
2018-03-08T04:21:48.016Z,2.29
2018-03-08T04:22:48.037Z,2.34
2018-03-08T04:23:48.037Z,2.34
2018-03-08T04:24:48.029Z,2.38
2018-03-08T04:25:48.060Z,2.46
2018-03-08T04:26:48.041Z,2.4
2018-03-08T04:27:48.050Z,2.43
2018-03-08T04:28:48.075Z,2.38
2018-03-08T04:29:48.100Z,2.43
2018-03-08T04:30:48.042Z,2.46
2018-03-08T04:31:48.324Z,2.45
2018-03-08T04:32:48.052Z,2.42
2018-03-08T04:33:48.062Z,2.45
2018-03-08T04:34:48.068Z,2.48
2018-03-08T04:35:48.090Z,2.56
2018-03-08T04:36:48.102Z,2.5
2018-03-08T04:37:48.080Z,2.53
2018-03-08T04:38:48.074Z,2.6
2018-03-08T04:39:48.076Z,2.61
2018-03-08T04:40:48.081Z,2.65
2018-03-08T04:41:48.103Z,2.54
2018-03-08T04:42:48.115Z,2.61
2018-03-08T04:43:48.144Z,2.64
2018-03-08T04:44:48.088Z,2.67
2018-03-08T04:45:48.098Z,2.65
2018-03-08T04:46:48.111Z,2.67
2018-03-08T04:47:48.110Z,2.69
2018-03-08T04:48:48.112Z,2.68
2018-03-08T04:49:48.108Z,2.63
2018-03-08T04:50:48.102Z,2.68
2018-03-08T04:51:48.128Z,2.7
2018-03-08T04:52:48.111Z,2.7
2018-03-08T04:53:48.097Z,2.7
2018-03-08T04:54:48.099Z,2.7
2018-03-08T04:55:48.108Z,2.75
2018-03-08T04:56:48.100Z,2.7
2018-03-08T04:57:48.106Z,2.69
2018-03-08T04:58:48.148Z,2.69
2018-03-08T04:59:48.114Z,2.71
2018-03-08T05:00:48.125Z,2.72
2018-03-08T05:01:48.148Z,2.77
2018-03-08T05:02:48.134Z,2.72
2018-03-08T05:03:48.178Z,2.76
2018-03-08T05:04:48.148Z,2.74
2018-03-08T05:05:48.133Z,2.72
2018-03-08T05:06:48.150Z,2.74
2018-03-08T05:07:48.156Z,2.73
2018-03-08T05:08:48.185Z,2.69
2018-03-08T05:09:48.157Z,2.66
2018-03-08T05:10:48.162Z,2.69
2018-03-08T05:11:48.165Z,2.66
2018-03-08T05:12:48.174Z,2.7
2018-03-08T05:13:48.438Z,2.68
2018-03-08T05:14:48.236Z,2.69
2018-03-08T05:15:48.189Z,2.65
2018-03-08T05:16:48.206Z,2.68
2018-03-08T05:17:48.192Z,2.61
2018-03-08T05:18:48.218Z,2.69
2018-03-08T05:19:48.219Z,2.65
2018-03-08T05:20:48.199Z,2.63
2018-03-08T05:21:48.181Z,2.68
2018-03-08T05:22:48.194Z,2.64
2018-03-08T05:23:48.505Z,2.65
2018-03-08T05:24:48.203Z,2.62
2018-03-08T05:25:48.188Z,2.64
2018-03-08T05:26:48.198Z,2.67
2018-03-08T05:27:48.194Z,2.63
2018-03-08T05:28:48.205Z,2.65
2018-03-08T05:29:48.208Z,2.68
2018-03-08T05:30:48.281Z,2.65
2018-03-08T05:31:48.199Z,2.7
2018-03-08T05:32:48.219Z,2.69
2018-03-08T05:33:48.243Z,2.69
2018-03-08T05:34:48.509Z,2.71
2018-03-08T05:35:48.312Z,2.69
2018-03-08T05:36:48.253Z,2.66
2018-03-08T05:37:48.264Z,2.7
2018-03-08T05:38:48.252Z,2.69
2018-03-08T05:39:48.273Z,2.73
2018-03-08T05:40:48.243Z,2.83
2018-03-08T05:41:48.251Z,2.84
2018-03-08T05:42:48.260Z,2.79
2018-03-08T05:43:48.263Z,2.86
2018-03-08T05:44:48.276Z,2.88
2018-03-08T05:45:48.266Z,2.79
2018-03-08T05:46:48.268Z,2.86
2018-03-08T05:47:48.295Z,2.93
2018-03-08T05:48:48.263Z,2.98
2018-03-08T05:49:48.278Z,2.96
2018-03-08T05:50:48.285Z,2.99
2018-03-08T05:51:48.277Z,3
2018-03-08T05:52:48.279Z,2.98
2018-03-08T05:53:48.277Z,3.07
2018-03-08T05:54:48.262Z,2.99
2018-03-08T05:55:48.295Z,2.98
2018-03-08T05:56:48.278Z,3.02
2018-03-08T05:57:48.282Z,3.07
2018-03-08T05:58:48.284Z,3.11
2018-03-08T05:59:48.327Z,3.18
2018-03-08T06:00:48.543Z,3.21
2018-03-08T06:01:48.291Z,3.28
2018-03-08T06:02:48.293Z,3.26
2018-03-08T06:03:48.317Z,3.28
2018-03-08T06:04:48.297Z,3.32
2018-03-08T06:05:48.302Z,3.27
2018-03-08T06:06:48.309Z,3.33
2018-03-08T06:07:48.296Z,3.23
2018-03-08T06:08:48.312Z,3.27
2018-03-08T06:09:48.315Z,3.24
2018-03-08T06:10:48.326Z,3.3
2018-03-08T06:11:48.305Z,3.34
2018-03-08T06:12:48.345Z,3.36
2018-03-08T06:13:48.330Z,3.28
2018-03-08T06:14:48.347Z,3.33
2018-03-08T06:15:48.368Z,3.34
2018-03-08T06:16:48.353Z,3.36
2018-03-08T06:17:48.341Z,3.3
2018-03-08T06:18:48.332Z,3.12
2018-03-08T06:19:48.344Z,3.22
2018-03-08T06:20:48.349Z,3.3
2018-03-08T06:21:48.355Z,3.29
2018-03-08T06:22:48.341Z,3.28
2018-03-08T06:23:48.355Z,3.19
2018-03-08T06:24:48.349Z,3.22
2018-03-08T06:25:48.357Z,3.29
2018-03-08T06:26:48.377Z,3.3
2018-03-08T06:27:48.355Z,3.41
2018-03-08T06:28:48.372Z,3.38
2018-03-08T06:29:48.422Z,3.3
2018-03-08T06:30:48.381Z,3.19
2018-03-08T06:31:48.459Z,3.22
2018-03-08T06:32:48.387Z,3.21
2018-03-08T06:33:48.386Z,3.28
2018-03-08T06:34:48.383Z,3.22
2018-03-08T06:35:48.464Z,3.26
2018-03-08T06:36:48.406Z,3.31
2018-03-08T06:37:48.422Z,3.21
2018-03-08T06:38:48.400Z,3.24
2018-03-08T06:39:48.425Z,3.28
2018-03-08T06:40:48.420Z,3.2
2018-03-08T06:41:48.409Z,3.16
2018-03-08T06:42:48.457Z,3.15
2018-03-08T06:43:48.430Z,3.19
2018-03-08T06:44:48.670Z,3.27
2018-03-08T06:45:48.421Z,3.36
2018-03-08T06:46:48.420Z,3.24
2018-03-08T06:47:48.900Z,3.24
2018-03-08T06:48:48.442Z,3.25
2018-03-08T06:49:48.445Z,3.27
2018-03-08T06:50:48.441Z,3.27
2018-03-08T06:51:48.442Z,3.21
2018-03-08T06:52:48.464Z,3.31
2018-03-08T06:53:48.464Z,3.28
2018-03-08T06:54:48.458Z,3.3
2018-03-08T06:55:48.458Z,3.31
2018-03-08T06:56:48.462Z,3.25
2018-03-08T06:57:48.471Z,3.26
2018-03-08T06:58:48.498Z,3.16
2018-03-08T06:59:48.482Z,3.1
2018-03-08T07:00:48.495Z,3.14
2018-03-08T07:01:48.477Z,3.1
2018-03-08T07:02:48.698Z,3.18
2018-03-08T07:03:48.486Z,3.2
2018-03-08T07:04:48.476Z,3.09
2018-03-08T07:05:48.496Z,3.16
2018-03-08T07:06:48.491Z,3.16
2018-03-08T07:07:48.762Z,3.21
2018-03-08T07:08:48.485Z,2.96
2018-03-08T07:09:48.672Z,3.14
2018-03-08T07:10:48.500Z,3.18
2018-03-08T07:11:48.488Z,3.25
2018-03-08T07:12:48.518Z,3.25
2018-03-08T07:13:48.557Z,3.3
2018-03-08T07:14:48.499Z,3.25
2018-03-08T07:15:48.708Z,3.26
2018-03-08T07:16:48.559Z,3.13
2018-03-08T07:17:48.586Z,3.15
2018-03-08T07:18:48.573Z,3.18
2018-03-08T07:19:48.530Z,3.21
2018-03-08T07:20:48.542Z,3.25
2018-03-08T07:21:48.523Z,3.21
2018-03-08T07:22:48.531Z,3.18
2018-03-08T07:23:48.595Z,3.26
2018-03-08T07:24:48.536Z,3.23
2018-03-08T07:25:48.543Z,3.32
2018-03-08T07:26:48.560Z,3.34
2018-03-08T07:27:48.542Z,3.34
2018-03-08T07:28:48.553Z,3.44
2018-03-08T07:29:48.566Z,3.44
2018-03-08T07:30:48.555Z,3.42
2018-03-08T07:31:48.838Z,3.46
2018-03-08T07:32:48.570Z,3.35
2018-03-08T07:33:48.592Z,3.33
2018-03-08T07:34:48.578Z,3.37
2018-03-08T07:35:48.595Z,3.46
2018-03-08T07:36:48.628Z,3.49
2018-03-08T07:37:48.600Z,3.48
2018-03-08T07:38:48.592Z,3.41
2018-03-08T07:39:48.613Z,3.47
2018-03-08T07:40:48.619Z,3.44
2018-03-08T07:41:48.628Z,3.37
2018-03-08T07:42:48.616Z,3.38
2018-03-08T07:43:48.629Z,3.46
2018-03-08T07:44:48.620Z,3.48
2018-03-08T07:45:48.627Z,3.43
2018-03-08T07:46:48.632Z,3.46
2018-03-08T07:47:48.632Z,3.37
2018-03-08T07:48:48.643Z,3.37
2018-03-08T07:49:48.637Z,3.35
2018-03-08T07:50:48.629Z,3.44
2018-03-08T07:51:48.865Z,3.49
2018-03-08T07:52:48.676Z,3.55
2018-03-08T07:53:48.661Z,3.59
2018-03-08T07:54:48.658Z,3.63
2018-03-08T07:55:48.660Z,3.61
2018-03-08T07:56:48.664Z,3.65
2018-03-08T07:57:48.696Z,3.54
2018-03-08T07:58:48.676Z,3.55
2018-03-08T07:59:48.685Z,3.53
2018-03-08T08:00:48.693Z,3.58
2018-03-08T08:01:48.691Z,3.54
2018-03-08T08:02:48.757Z,3.6
2018-03-08T08:03:48.691Z,3.58
2018-03-08T08:04:48.735Z,3.55
2018-03-08T08:05:48.692Z,3.49
2018-03-08T08:06:48.703Z,3.55
2018-03-08T08:07:48.707Z,3.56
2018-03-08T08:08:48.740Z,3.56
2018-03-08T08:09:48.727Z,3.59
2018-03-08T08:10:48.734Z,3.55
2018-03-08T08:11:48.759Z,3.52
2018-03-08T08:12:48.732Z,3.53
2018-03-08T08:13:48.725Z,3.6
2018-03-08T08:14:48.730Z,3.64
2018-03-08T08:15:48.727Z,3.63
2018-03-08T08:16:48.726Z,3.62
2018-03-08T08:17:48.754Z,3.6
2018-03-08T08:18:48.755Z,3.69
2018-03-08T08:19:48.731Z,3.65
2018-03-08T08:20:48.746Z,3.7
2018-03-08T08:21:48.749Z,3.76
2018-03-08T08:22:48.753Z,3.7
2018-03-08T08:23:49.041Z,3.68
2018-03-08T08:24:48.780Z,3.69
2018-03-08T08:25:48.848Z,3.86
2018-03-08T08:26:48.993Z,3.8
2018-03-08T08:27:48.772Z,3.78
2018-03-08T08:28:48.808Z,3.76
2018-03-08T08:29:48.788Z,3.7
2018-03-08T08:30:48.793Z,3.69
2018-03-08T08:31:48.823Z,3.81
2018-03-08T08:32:48.823Z,3.83
2018-03-08T08:33:49.072Z,3.9
2018-03-08T08:34:54.793Z,3.92
2018-03-08T08:35:48.781Z,3.9
2018-03-08T08:36:48.804Z,3.76
2018-03-08T08:37:48.799Z,3.71
2018-03-08T08:38:48.832Z,3.73
2018-03-08T08:39:48.843Z,3.79
2018-03-08T08:40:48.855Z,3.75
2018-03-08T08:41:48.815Z,3.8
2018-03-08T08:42:48.828Z,3.83
2018-03-08T08:43:48.833Z,3.9
2018-03-08T08:44:48.905Z,3.95
2018-03-08T08:45:48.809Z,3.92
2018-03-08T08:46:48.827Z,4.01
2018-03-08T08:47:48.830Z,3.99
2018-03-08T08:48:49.122Z,4
2018-03-08T08:49:48.855Z,3.92
2018-03-08T08:50:48.849Z,3.94
2018-03-08T08:51:48.855Z,3.86
2018-03-08T08:52:48.913Z,3.79
2018-03-08T08:53:48.866Z,3.91
2018-03-08T08:54:48.861Z,3.79
2018-03-08T08:55:48.859Z,3.79
2018-03-08T08:56:48.887Z,3.76
2018-03-08T08:57:48.873Z,3.84
2018-03-08T08:58:48.878Z,3.8
2018-03-08T08:59:48.858Z,3.8
2018-03-08T09:00:48.908Z,3.9
2018-03-08T09:01:48.886Z,4.05
2018-03-08T09:02:48.880Z,4.02
2018-03-08T09:03:48.883Z,4.06
2018-03-08T09:04:48.926Z,4.06
2018-03-08T09:05:48.903Z,4.09
2018-03-08T09:06:48.905Z,4.09
2018-03-08T09:07:48.899Z,4.19
2018-03-08T09:08:48.893Z,4.15
2018-03-08T09:09:48.912Z,4.1
2018-03-08T09:10:48.959Z,4.11
2018-03-08T09:11:48.898Z,4.14
2018-03-08T09:12:48.916Z,4.05
2018-03-08T09:13:48.947Z,4.02
2018-03-08T09:14:48.910Z,4.18
2018-03-08T09:15:48.960Z,4.07
2018-03-08T09:16:48.914Z,4.01
2018-03-08T09:17:48.935Z,4.11
2018-03-08T09:18:48.948Z,4.16
2018-03-08T09:19:48.953Z,4.14
2018-03-08T09:20:48.951Z,4.14
2018-03-08T09:21:48.959Z,4.15
2018-03-08T09:22:48.957Z,4.07
2018-03-08T09:23:48.962Z,4.09
2018-03-08T09:24:48.972Z,4.1
2018-03-08T09:25:48.947Z,4.19
2018-03-08T09:26:48.956Z,4.16
2018-03-08T09:27:48.983Z,4.24
2018-03-08T09:28:48.962Z,4.22
2018-03-08T09:29:48.941Z,4.32
2018-03-08T09:30:48.944Z,4.25
2018-03-08T09:31:48.966Z,4.17
2018-03-08T09:32:49.254Z,4.21
2018-03-08T09:33:48.957Z,4.27
2018-03-08T09:34:48.973Z,4.37
2018-03-08T09:35:48.955Z,4.28
2018-03-08T09:36:48.957Z,4.27
2018-03-08T09:37:48.989Z,4.25
2018-03-08T09:38:48.954Z,4.17
2018-03-08T09:39:48.974Z,4.08
2018-03-08T09:40:48.964Z,4.19
2018-03-08T09:41:49.005Z,4.15
2018-03-08T09:42:48.992Z,4.18
2018-03-08T09:43:49.153Z,4.16
2018-03-08T09:44:48.987Z,4.09
2018-03-08T09:45:48.993Z,4.09
2018-03-08T09:46:49.011Z,4.06
2018-03-08T09:47:48.997Z,4.13
2018-03-08T09:48:49.015Z,4.1
2018-03-08T09:49:48.996Z,4.22
2018-03-08T09:50:49.003Z,4.09
2018-03-08T09:51:49.160Z,3.98
2018-03-08T09:52:49.007Z,4.09
2018-03-08T09:53:49.037Z,4.1
2018-03-08T09:54:49.007Z,4.02
2018-03-08T09:55:49.021Z,4.07
2018-03-08T09:56:49.020Z,4.14
2018-03-08T09:57:49.036Z,4.15
2018-03-08T09:58:49.041Z,4.29
2018-03-08T09:59:49.046Z,4.19
2018-03-08T10:00:49.032Z,4.13
2018-03-08T10:01:49.043Z,4.04
2018-03-08T10:02:49.090Z,4.11
2018-03-08T10:03:49.066Z,3.93
2018-03-08T10:04:49.053Z,4.15
2018-03-08T10:05:49.060Z,4.2
2018-03-08T10:06:49.062Z,4.05
2018-03-08T10:07:49.116Z,3.89
2018-03-08T10:08:49.104Z,3.89
2018-03-08T10:09:49.059Z,3.97
2018-03-08T10:10:49.083Z,4.11
2018-03-08T10:11:49.071Z,4.1
2018-03-08T10:12:49.143Z,4.09
2018-03-08T10:13:49.096Z,4.19
2018-03-08T10:14:49.095Z,4.11
2018-03-08T10:15:49.088Z,4.11
2018-03-08T10:16:49.088Z,3.87
2018-03-08T10:17:49.110Z,3.86
2018-03-08T10:18:49.087Z,3.74
2018-03-08T10:19:49.102Z,3.67
2018-03-08T10:20:49.118Z,3.61
2018-03-08T10:21:49.107Z,3.53
2018-03-08T10:22:49.284Z,3.63
2018-03-08T10:23:49.107Z,3.71
2018-03-08T10:24:49.123Z,3.72
2018-03-08T10:25:49.103Z,3.78
2018-03-08T10:26:49.123Z,3.91
2018-03-08T10:27:49.108Z,3.81
2018-03-08T10:28:49.121Z,3.88
2018-03-08T10:29:49.125Z,3.63
2018-03-08T10:30:49.132Z,3.42
2018-03-08T10:31:49.128Z,3.35
2018-03-08T10:32:49.140Z,3.1
2018-03-08T10:33:49.174Z,3.32
2018-03-08T10:34:49.176Z,3.41
2018-03-08T10:35:49.162Z,2.99
2018-03-08T10:36:49.162Z,3
2018-03-08T10:37:49.149Z,2.99
2018-03-08T10:38:49.170Z,3.07
2018-03-08T10:39:49.166Z,3.07
2018-03-08T10:40:49.139Z,3.06
2018-03-08T10:41:49.161Z,2.97
2018-03-08T10:42:49.162Z,3.03
2018-03-08T10:43:49.177Z,3.01
2018-03-08T10:44:49.159Z,3.11
2018-03-08T10:45:49.167Z,3.04
2018-03-08T10:46:49.174Z,3.22
2018-03-08T10:47:49.171Z,3.28
2018-03-08T10:49:49.193Z,3.28
2018-03-08T10:50:49.187Z,3.36
2018-03-08T10:51:49.219Z,3.39
2018-03-08T10:52:49.195Z,3.38
2018-03-08T10:53:49.211Z,3.41
2018-03-08T10:54:49.213Z,3.26
2018-03-08T10:55:49.230Z,2.87
2018-03-08T10:56:49.206Z,3.03
2018-03-08T10:57:49.220Z,3.02
2018-03-08T10:58:49.211Z,3.07
2018-03-08T10:59:49.200Z,2.96
2018-03-08T11:00:49.906Z,2.88
2018-03-08T11:01:49.196Z,2.88
2018-03-08T11:02:49.213Z,3.03
2018-03-08T11:03:49.226Z,2.82
2018-03-08T11:04:49.265Z,2.94
2018-03-08T11:05:49.214Z,2.94
2018-03-08T11:06:49.318Z,2.96
2018-03-08T11:07:49.240Z,2.82
2018-03-08T11:08:49.257Z,2.86
2018-03-08T11:09:49.256Z,2.96
2018-03-08T11:10:49.245Z,3.09
2018-03-08T11:11:49.246Z,3
2018-03-08T11:12:49.265Z,2.92
2018-03-08T11:13:49.250Z,2.94
2018-03-08T11:14:49.300Z,3.03
2018-03-08T11:15:49.341Z,2.99
2018-03-08T11:16:49.286Z,3.1
2018-03-08T11:17:49.285Z,3.06
2018-03-08T11:18:49.269Z,2.86
2018-03-08T11:19:49.298Z,2.94
2018-03-08T11:20:49.274Z,2.92
2018-03-08T11:21:49.282Z,3.1
2018-03-08T11:22:49.277Z,3.07
2018-03-08T11:23:49.312Z,2.99
2018-03-08T11:24:49.289Z,3.04
2018-03-08T11:25:49.290Z,2.83
2018-03-08T11:26:49.304Z,2.84
2018-03-08T11:27:49.296Z,2.93
2018-03-08T11:28:49.300Z,2.91
2018-03-08T11:29:49.301Z,2.89
2018-03-08T11:30:49.337Z,3.11
2018-03-08T11:31:49.285Z,2.97
2018-03-08T11:32:49.298Z,3.05
2018-03-08T11:33:49.325Z,2.95
2018-03-08T11:34:49.312Z,3.11
2018-03-08T11:36:49.312Z,3.06
2018-03-08T11:37:49.356Z,3.16
2018-03-08T11:38:49.312Z,3.18
2018-03-08T11:39:49.337Z,3.16
2018-03-08T11:40:49.343Z,3.21
2018-03-08T11:41:49.341Z,3.15
2018-03-08T11:42:49.356Z,3.21
2018-03-08T11:43:49.345Z,3.23
2018-03-08T11:44:49.653Z,3.19
2018-03-08T11:45:49.341Z,3.07
2018-03-08T11:46:49.347Z,3.29
2018-03-08T11:47:49.339Z,3.28
2018-03-08T11:48:49.348Z,3.2
2018-03-08T11:49:49.397Z,3.2
2018-03-08T11:50:49.356Z,3.14
2018-03-08T11:51:49.368Z,3.23
2018-03-08T11:52:49.372Z,3.28
2018-03-08T11:53:49.374Z,3.29
2018-03-08T11:54:49.869Z,3.14
2018-03-08T11:55:49.372Z,3.23
2018-03-08T11:56:49.385Z,3.25
2018-03-08T11:57:49.409Z,3.24
2018-03-08T11:58:49.392Z,2.91
2018-03-08T11:59:49.396Z,2.95
2018-03-08T12:00:49.420Z,2.98
2018-03-08T12:01:49.410Z,2.96
2018-03-08T12:02:49.428Z,3.08
2018-03-08T12:03:49.414Z,3.14
2018-03-08T12:04:49.419Z,3.07
2018-03-08T12:05:49.421Z,2.69
2018-03-08T12:06:49.433Z,2.7
2018-03-08T12:07:49.421Z,2.91
2018-03-08T12:08:49.411Z,2.74
2018-03-08T12:09:49.418Z,3.02
2018-03-08T12:10:49.435Z,2.92
2018-03-08T12:11:49.427Z,2.97
2018-03-08T12:12:49.438Z,2.72
2018-03-08T12:13:49.441Z,3.11
2018-03-08T12:14:49.434Z,3.04
2018-03-08T12:15:49.494Z,3.01
2018-03-08T12:16:49.922Z,2.48
2018-03-08T12:17:49.729Z,2.59
2018-03-08T12:18:49.450Z,2.64
2018-03-08T12:19:49.610Z,2.99
2018-03-08T12:20:49.463Z,2.93
2018-03-08T12:21:49.471Z,2.74
2018-03-08T12:22:49.649Z,2.63
2018-03-08T12:23:49.460Z,2.59
2018-03-08T12:24:49.487Z,2.9
2018-03-08T12:25:49.467Z,2.78
2018-03-08T12:26:49.467Z,2.75
2018-03-08T12:27:49.511Z,2.81
2018-03-08T12:28:49.480Z,2.48
2018-03-08T12:29:49.863Z,2.9
2018-03-08T12:30:49.478Z,3.06
2018-03-08T12:31:49.498Z,2.98
2018-03-08T12:32:49.495Z,2.9
2018-03-08T12:33:49.500Z,2.9
2018-03-08T12:34:49.516Z,3.09
2018-03-08T12:35:49.763Z,2.99
2018-03-08T12:36:49.508Z,2.72
2018-03-08T12:37:49.509Z,3.1
2018-03-08T12:38:49.508Z,2.54
2018-03-08T12:39:49.509Z,2.67
2018-03-08T12:40:49.550Z,2.81
2018-03-08T12:41:49.540Z,2.77
2018-03-08T12:42:49.510Z,2.75
2018-03-08T12:43:49.519Z,3.02
2018-03-08T12:44:49.529Z,2.75
2018-03-08T12:45:49.583Z,2.87
2018-03-08T12:46:49.536Z,2.23
2018-03-08T12:47:49.523Z,2.78
2018-03-08T12:48:50.039Z,2.66
2018-03-08T12:49:49.539Z,2.44
2018-03-08T12:50:49.564Z,2.34
2018-03-08T12:51:49.550Z,2.38
2018-03-08T12:52:49.556Z,2.04
2018-03-08T12:53:49.564Z,2.27
2018-03-08T12:54:49.555Z,2.61
2018-03-08T12:55:49.874Z,2.69
2018-03-08T12:56:49.581Z,2.6
2018-03-08T12:57:49.582Z,2.55
2018-03-08T12:58:49.574Z,2.45
2018-03-08T12:59:49.589Z,2.74
2018-03-08T13:00:49.651Z,2.81
2018-03-08T13:01:49.581Z,2.87
2018-03-08T13:02:49.588Z,3.23
2018-03-08T13:03:49.601Z,3.24
2018-03-08T13:04:49.602Z,2.75
2018-03-08T13:05:49.596Z,3.06
2018-03-08T13:06:49.674Z,2.96
2018-03-08T13:07:49.621Z,2.75
2018-03-08T13:08:49.639Z,2.47
2018-03-08T13:09:49.636Z,2.82
2018-03-08T13:10:49.610Z,2.43
2018-03-08T13:11:49.644Z,2.58
2018-03-08T13:12:49.642Z,2.64
2018-03-08T13:13:49.635Z,2.47
2018-03-08T13:14:49.656Z,2.49
2018-03-08T13:15:49.644Z,2.29
2018-03-08T13:16:49.677Z,2.2
2018-03-08T13:17:49.650Z,2.52
2018-03-08T13:18:49.708Z,2.47
2018-03-08T13:19:49.666Z,2.75
2018-03-08T13:20:49.664Z,2.56
2018-03-08T13:21:49.699Z,2.52
2018-03-08T13:22:49.795Z,2.54
2018-03-08T13:23:49.678Z,2.52
2018-03-08T13:24:49.698Z,2.66